• Join FlightAware (Why Join?)
  • Login
  • US Flag 
10:43PM EDT


 

Airport Tracker/Info


-or-


 

Live Flight TrackerFlight Track Log ✈ AAL1068 ✈ 13-Apr-2013 ✈ KORD - KMIA

Flight Track Log - Related Links

Times and Time Zones

All times are in EDT time to prevent confusion due to time zone crossing. See the AAL1068 flight status page for this flight to view local times or setup timezone preferences in your user account.

Time Position Orientation Groundspeed Altitude Reporting Facility
EDT Latitude Longitude Course Direction KTS MPH feet Rate Location/Type
08:10PM 41.9167 -87.9000 157° South 177 204 2,500  Level Chicago TRACON
08:12PM 41.6494 -87.7127 166° South  Level Estimated
08:12PM 41.8053 -87.8686 168° South 251 289 6,700  Level Chicago Center
08:13PM 41.5386 -87.6485 167° South  Level Estimated
08:13PM 41.7250 -87.8369 164° South 295 339 9,600  Level Chicago Center
08:14PM 41.4278 -87.5846 180° South  Level Estimated
08:14PM 41.6400 -87.8064 165° South 314 361 12,100  Level Chicago Center
08:15PM 41.3169 -87.5208 180° South  Level Estimated
08:15PM 41.5458 -87.7722 165° South 343 395 14,600  Level Chicago Center
08:16PM 41.2089 -87.4589 157° South  Level Estimated
08:16PM 41.4456 -87.7222 160° South 377 434 17,400  Level Chicago Center
08:17PM 41.3397 -87.6603 156° South 406 467 19,600 2,400 Climbing Chicago Center
08:18PM 41.2056 -87.5772 155° Southeast 438 504 22,300 2,280 Climbing Chicago Center
08:19PM 41.0889 -87.5111 157° South 450 518 24,300 1,860 Climbing Chicago Center
08:20PM 40.9683 -87.4453 158° South 465 535 26,200 1,620 Climbing Chicago Center
08:21PM 40.8464 -87.3758 157° South 474 545 27,700 1,620 Climbing Chicago Center
08:22PM 40.7231 -87.3083 157° South 479 551 29,500 1,620 Climbing Chicago Center
08:23PM 40.5947 -87.2411 158° South 490 564 31,100 1,920 Climbing Chicago Center
08:25PM 40.4722 -87.1711 157° South 483 556 33,500 1,680 Climbing Chicago Center
08:26PM 40.3533 -87.1058 157° South 466 536 34,600 1,200 Climbing Chicago Center
08:27PM 40.2322 -87.0392 157° South 470 541 36,000 1,140 Climbing Chicago Center
08:28PM 40.0911 -86.9631 158° South 458 527 37,000 780 Climbing Chicago Center
08:28PM 40.0717 -86.9550 162° South 463 533 37,000  Level Indianapolis Center
08:29PM 39.9503 -86.8878 157° South 469 540 37,000  Level Indianapolis Center
08:30PM 39.8261 -86.8222 158° South 475 547 37,000  Level Indianapolis Center
08:31PM 39.7011 -86.7556 158° South 481 554 37,000  Level Indianapolis Center
08:32PM 39.5781 -86.6897 158° South 478 550 37,000  Level Indianapolis Center
08:33PM 39.4558 -86.6253 158° South 472 543 37,000  Level Indianapolis Center
08:34PM 39.3344 -86.5614 158° South 468 539 37,000  Level Indianapolis Center
08:35PM 39.2128 -86.4961 157° South 470 541 37,000  Level Indianapolis Center
08:36PM 39.0897 -86.4308 158° South 473 544 37,000  Level Indianapolis Center
08:37PM 38.9672 -86.3678 158° South 471 542 37,000  Level Indianapolis Center
08:38PM 38.8456 -86.3050 158° South 468 539 37,000  Level Indianapolis Center
08:39PM 38.7256 -86.2422 158° South 463 533 37,000  Level Indianapolis Center
08:40PM 38.6072 -86.1811 158° South 456 525 37,000  Level Indianapolis Center
08:41PM 38.4881 -86.1197 158° South 456 525 37,000  Level Indianapolis Center
08:42PM 38.3475 -86.0478 158° South 449 517 37,000  Level Indianapolis Center
08:43PM 38.2300 -85.9875 158° South 451 519 37,000  Level Indianapolis Center
08:44PM 38.1111 -85.9281 159° South 454 522 37,000  Level Indianapolis Center
08:45PM 37.9933 -85.8675 158° South 452 520 37,000  Level Indianapolis Center
08:46PM 37.8744 -85.8075 158° South 456 525 37,000  Level Indianapolis Center
08:47PM 37.7575 -85.7478 158° South 451 519 37,000  Level Indianapolis Center
08:48PM 37.6400 -85.6894 159° South 451 519 37,000  Level Indianapolis Center
08:49PM 37.5219 -85.6303 158° South 452 520 37,000  Level Indianapolis Center
08:50PM 37.4028 -85.5711 158° South 456 525 37,000  Level Indianapolis Center
08:51PM 37.2894 -85.5144 158° South 455 524 37,000  Level Indianapolis Center
08:52PM 37.1725 -85.4558 158° South 449 517 37,000  Level Indianapolis Center
08:53PM 37.0547 -85.3997 159° South 451 519 37,000  Level Indianapolis Center
08:54PM 36.9386 -85.3408 158° South 449 517 37,000  Level Indianapolis Center
08:55PM 36.8211 -85.2842 159° South 451 519 37,000  Level Indianapolis Center
08:56PM 36.7044 -85.2253 158° South 452 520 37,000  Level Indianapolis Center
08:57PM 36.5858 -85.1728 160° South 452 520 37,000  Level Indianapolis Center
08:58PM 36.4647 -85.1436 169° South 445 512 37,000  Level Indianapolis Center
08:59PM 36.3192 -85.1058 168° South 443 510 37,000  Level Indianapolis Center
09:00PM 36.1967 -85.0744 168° South 449 517 37,000  Level Indianapolis Center
09:01PM 36.0761 -85.0433 168° South 445 512 37,000  Level Indianapolis Center
09:02PM 35.9631 -85.0142 168° South 449 517 37,000  Level Indianapolis Center
09:03PM 35.8397 -84.9839 169° South 453 521 37,000  Level Atlanta Center
09:04PM 35.7150 -84.9544 169° South 455 524 37,000  Level Atlanta Center
09:05PM 35.5961 -84.9225 168° South 455 524 37,000  Level Atlanta Center
09:06PM 35.4733 -84.8931 169° South 450 518 37,000  Level Atlanta Center
09:07PM 35.3525 -84.8611 168° South 450 518 37,000  Level Atlanta Center
09:08PM 35.2317 -84.8322 169° South 450 518 37,000  Level Atlanta Center
09:09PM 35.1108 -84.8006 168° South 450 518 37,000  Level Atlanta Center
09:10PM 34.9900 -84.7689 168° South 450 518 37,000  Level Atlanta Center
09:11PM 34.8692 -84.7425 170° South 450 518 37,000  Level Atlanta Center
09:12PM 34.7483 -84.7111 168° South 450 518 37,000  Level Atlanta Center
09:13PM 34.6294 -84.6800 168° South 444 511 37,000 420 Level Atlanta Center
09:14PM 34.5067 -84.6489 168° South 450 518 37,900 900 Climbing Atlanta Center
09:15PM 34.3836 -84.6178 168° South 450 518 38,800 540 Climbing Atlanta Center
09:16PM 34.2522 -84.5867 169° South 450 518 39,000 60 Climbing Atlanta Center
09:17PM 34.1314 -84.5583 169° South 450 518 39,000  Level Atlanta Center
09:18PM 34.0167 -84.5300 168° South 455 524 39,000  Level Atlanta Center
09:19PM 33.8811 -84.5042 171° South 455 524 39,000  Level Atlanta Center
09:20PM 33.7581 -84.4836 172° South 455 524 39,000  Level Atlanta Center
09:21PM 33.6350 -84.4631 172° South 449 517 39,000  Level Atlanta Center
09:22PM 33.5222 -84.4500 174° South 449 517 39,000  Level Atlanta Center
09:23PM 33.3969 -84.4294 172° South 449 517 39,000  Level Atlanta Center
09:24PM 33.2614 -84.4089 173° South 449 517 39,000  Level Atlanta Center
09:25PM 33.1406 -84.3911 173° South 443 510 39,000  Level Atlanta Center
09:26PM 33.0131 -84.3733 173° South 449 517 39,000  Level Atlanta Center
09:27PM 32.8900 -84.3556 173° South 449 517 39,000  Level Atlanta Center
09:28PM 32.7711 -84.3328 171° South 449 517 39,000  Level Atlanta Center
09:29PM 32.6481 -84.3150 173° South 443 510 39,000  Level Atlanta Center
09:30PM 32.5250 -84.2950 172° South 443 510 39,000  Level Atlanta Center
09:31PM 32.4039 -84.2775 173° South 443 510 39,000  Level Atlanta Center
09:32PM 32.2808 -84.2575 172° South 443 510 39,000  Level Atlanta Center
09:33PM 32.1617 -84.2400 173° South 443 510 39,000  Level Atlanta Center
09:34PM 32.0614 -84.2236 172° South 444 511 39,000  Level Jacksonville Center
09:35PM 31.9406 -84.2072 173° South 444 511 39,000  Level Jacksonville Center
09:36PM 31.8175 -84.1908 174° South 444 511 39,000  Level Jacksonville Center
09:37PM 31.7028 -84.1722 172° South 449 517 39,000  Level Jacksonville Center
09:38PM 31.5797 -84.1533 173° South 449 517 39,000  Level Jacksonville Center
09:39PM 31.4550 -84.1128 164° South 454 522 39,000  Level Jacksonville Center
09:40PM 31.3322 -84.0600 160° South 454 522 39,000  Level Jacksonville Center
09:41PM 31.2075 -84.0100 161° South 466 536 39,000  Level Jacksonville Center
09:42PM 31.0825 -83.9622 162° South 466 536 39,000  Level Jacksonville Center
09:43PM 30.9597 -83.9100 160° South 471 542 39,000  Level Jacksonville Center
09:44PM 30.8350 -83.8628 162° South 466 536 39,000  Level Jacksonville Center
09:45PM 30.7100 -83.8108 160° South 466 536 39,000  Level Jacksonville Center
09:46PM 30.5850 -83.7589 160° South 466 536 39,000  Level Jacksonville Center
09:47PM 30.4664 -83.7119 161° South 462 532 39,000  Level Jacksonville Center
09:48PM 30.3414 -83.6628 161° South 462 532 39,000  Level Jacksonville Center
09:49PM 30.2144 -83.6136 161° South 468 539 39,000  Level Jacksonville Center
09:50PM 30.0894 -83.5672 162° South 473 544 39,000  Level Jacksonville Center
09:51PM 29.9664 -83.5183 161° South 473 544 39,000  Level Jacksonville Center
09:52PM 29.8414 -83.4697 161° South 473 544 39,000  Level Jacksonville Center
09:53PM 29.7164 -83.4236 162° South 479 551 39,000 -60 Level Jacksonville Center
09:54PM 29.5789 -83.3678 161° South 479 551 38,900  Descending Jacksonville Center
09:55PM 29.4517 -83.3172 161° South 479 551 39,000  Climbing Jacksonville Center
09:56PM 29.3286 -83.2689 161° South 479 551 39,000  Level Jacksonville Center
09:57PM 29.2014 -83.2186 161° South 479 551 39,000  Level Jacksonville Center
09:58PM 29.0742 -83.1706 162° South 484 557 39,000  Level Jacksonville Center
09:59PM 28.9469 -83.1228 162° South 484 557 39,000 -60 Level Jacksonville Center
10:01PM 28.6792 -83.0211 162° South 482 555 38,900  Descending Miami Center
10:02PM 28.5375 -82.9708 163° South 476 548 39,000  Climbing Miami Center
10:03PM 28.4125 -82.9192 160° South 476 548 39,000 -60 Level Miami Center
10:04PM 28.2853 -82.8722 162° South 476 548 38,900  Descending Miami Center
10:05PM 28.1622 -82.8233 161° South 476 548 39,000  Climbing Miami Center
10:06PM 28.0347 -82.7767 162° South 476 548 39,000  Level Miami Center
10:07PM 27.9033 -82.7275 162° South 482 555 39,000  Level Miami Center
10:08PM 27.7758 -82.6786 161° South 482 555 39,000  Level Miami Center
10:09PM 27.6631 -82.6331 160° South 482 555 39,000  Level Miami Center
10:10PM 27.5475 -82.5500 147° Southeast 482 555 39,000  Level Miami Center
10:11PM 27.4286 -82.4367 140° Southeast 490 564 39,000  Level Miami Center
10:12PM 27.3222 -82.3311 139° Southeast 508 585 39,000  Level Miami Center
10:13PM 27.2275 -82.2378 139° Southeast 509 586 39,000  Level Miami Center
10:14PM 27.1228 -82.1372 139° Southeast 504 580 39,000 -1,080 Level Miami Center
10:15PM 27.0078 -82.0272 140° Southeast 499 574 36,900 -2,220 Descending Miami Center
10:16PM 26.9147 -81.9392 140° Southeast 493 567 34,600 -2,700 Descending Miami Center
10:17PM 26.8078 -81.8347 139° Southeast 499 574 31,600 -3,000 Descending Miami Center
10:18PM 26.7047 -81.7350 139° Southeast 499 574 28,700 -2,820 Descending Miami Center
10:19PM 26.5914 -81.6258 139° Southeast 494 568 25,900 -2,580 Descending Miami Center
10:20PM 26.4922 -81.5336 140° Southeast 480 552 23,600 -2,220 Descending Miami Center
10:21PM 26.4008 -81.4464 139° Southeast 458 527 21,500 -2,220 Descending Miami Center
10:22PM 26.3139 -81.3619 139° Southeast 434 499 19,300 -2,220 Descending Miami Center
10:23PM 26.2286 -81.2847 141° Southeast 418 481 17,200 -2,400 Descending Miami Center
10:24PM 26.1472 -81.2053 139° Southeast 396 456 14,500 -2,220 Descending Miami Center
10:25PM 26.0781 -81.1472 143° Southeast 379 436 13,200 -1,800 Descending Miami Center
10:26PM 26.0150 -81.0872 139° Southeast 353 406 11,700 -1,920 Descending Miami Center
10:26PM 25.9928 -81.0611 133° Southeast 373 429 11,000 -1,260 Descending Miami Center
10:27PM 25.9397 -81.0153 142° Southeast 330 380 10,300 -900 Descending Miami Center
10:27PM 25.9258 -80.9986 133° Southeast 349 402 10,100 -1,020 Descending Miami Center
10:28PM 25.8853 -80.9489 132° Southeast 292 336 9,300 -1,200 Descending Miami Center
10:28PM 25.8839 -80.9233 93° East 296 341 8,900 -1,560 Descending Miami Center
10:29PM 25.8669 -80.8558 106° East 284 327 7,800 -1,440 Descending Miami Center
10:29PM 25.8675 -80.8350 88° East 283 326 7,500 -1,380 Descending Miami Center
10:30PM 25.8483 -80.7722 109° East 280 322 6,400 -1,380 Descending Miami Center
10:31PM 25.8339 -80.6864 101° East 278 320 5,000 -1,380 Descending Miami Center
10:32PM 25.8153 -80.6025 104° East 275 316 3,700 -1,020 Descending Miami Center
10:33PM 25.8003 -80.5306 103° East 230 265 3,000 -720 Descending Miami Center